sensor_id;sensor_type;location;lat;lon;timestamp;temperature;humidity
30280;DHT22;17097;50.916;5.344;2022-12-08T00:01:54;6.80;99.90
30280;DHT22;17097;50.916;5.344;2022-12-08T00:04:20;6.70;99.90
30280;DHT22;17097;50.916;5.344;2022-12-08T00:06:45;6.70;99.90
30280;DHT22;17097;50.916;5.344;2022-12-08T00:12:00;6.60;99.90
30280;DHT22;17097;50.916;5.344;2022-12-08T00:14:29;6.70;99.90
30280;DHT22;17097;50.916;5.344;2022-12-08T00:16:55;6.80;99.90
30280;DHT22;17097;50.916;5.344;2022-12-08T00:19:21;6.60;99.90
30280;DHT22;17097;50.916;5.344;2022-12-08T00:21:47;6.80;99.90
30280;DHT22;17097;50.916;5.344;2022-12-08T00:24:12;6.70;99.90
30280;DHT22;17097;50.916;5.344;2022-12-08T00:26:38;6.70;99.90
30280;DHT22;17097;50.916;5.344;2022-12-08T00:29:04;6.70;99.90
30280;DHT22;17097;50.916;5.344;2022-12-08T00:31:29;6.60;99.90
30280;DHT22;17097;50.916;5.344;2022-12-08T00:33:55;6.60;99.90
30280;DHT22;17097;50.916;5.344;2022-12-08T00:36:22;6.50;99.90
30280;DHT22;17097;50.916;5.344;2022-12-08T00:38:48;6.60;99.90
30280;DHT22;17097;50.916;5.344;2022-12-08T00:41:15;6.60;99.90
30280;DHT22;17097;50.916;5.344;2022-12-08T00:43:41;6.40;99.90
30280;DHT22;17097;50.916;5.344;2022-12-08T00:46:07;6.70;99.90
30280;DHT22;17097;50.916;5.344;2022-12-08T00:48:33;6.50;99.90
30280;DHT22;17097;50.916;5.344;2022-12-08T00:51:02;6.50;99.90
30280;DHT22;17097;50.916;5.344;2022-12-08T00:53:29;6.60;99.90
30280;DHT22;17097;50.916;5.344;2022-12-08T00:55:55;6.70;99.90
30280;DHT22;17097;50.916;5.344;2022-12-08T00:58:20;6.60;99.90
30280;DHT22;17097;50.916;5.344;2022-12-08T01:00:46;6.70;99.90
30280;DHT22;17097;50.916;5.344;2022-12-08T01:03:12;6.60;99.90
30280;DHT22;17097;50.916;5.344;2022-12-08T01:05:38;6.50;99.90
30280;DHT22;17097;50.916;5.344;2022-12-08T01:08:05;6.60;99.90
30280;DHT22;17097;50.916;5.344;2022-12-08T01:10:30;6.60;99.90
30280;DHT22;17097;50.916;5.344;2022-12-08T01:12:57;6.70;99.90
30280;DHT22;17097;50.916;5.344;2022-12-08T01:15:23;6.70;99.90
30280;DHT22;17097;50.916;5.344;2022-12-08T01:17:48;6.60;99.90
30280;DHT22;17097;50.916;5.344;2022-12-08T01:20:14;6.40;99.90
30280;DHT22;17097;50.916;5.344;2022-12-08T01:22:40;6.50;99.90
30280;DHT22;17097;50.916;5.344;2022-12-08T01:25:06;6.60;99.90
30280;DHT22;17097;50.916;5.344;2022-12-08T01:27:31;6.50;99.90
30280;DHT22;17097;50.916;5.344;2022-12-08T01:29:57;6.50;99.90
30280;DHT22;17097;50.916;5.344;2022-12-08T01:32:22;6.60;99.90
30280;DHT22;17097;50.916;5.344;2022-12-08T01:34:48;6.50;99.90
30280;DHT22;17097;50.916;5.344;2022-12-08T01:37:13;6.40;99.90
30280;DHT22;17097;50.916;5.344;2022-12-08T01:39:39;6.40;99.90
30280;DHT22;17097;50.916;5.344;2022-12-08T01:42:07;6.40;99.90
30280;DHT22;17097;50.916;5.344;2022-12-08T01:44:49;6.50;99.90
30280;DHT22;17097;50.916;5.344;2022-12-08T01:47:17;6.40;99.90
30280;DHT22;17097;50.916;5.344;2022-12-08T01:49:42;6.50;99.90
30280;DHT22;17097;50.916;5.344;2022-12-08T01:52:20;6.60;99.90
30280;DHT22;17097;50.916;5.344;2022-12-08T01:54:48;6.80;99.90
30280;DHT22;17097;50.916;5.344;2022-12-08T01:57:16;6.60;99.90
30280;DHT22;17097;50.916;5.344;2022-12-08T01:59:47;6.60;99.90
30280;DHT22;17097;50.916;5.344;2022-12-08T02:02:13;6.50;99.90
30280;DHT22;17097;50.916;5.344;2022-12-08T02:04:39;6.50;99.90
30280;DHT22;17097;50.916;5.344;2022-12-08T02:07:07;6.40;99.90
30280;DHT22;17097;50.916;5.344;2022-12-08T02:09:35;6.40;99.90
30280;DHT22;17097;50.916;5.344;2022-12-08T02:12:01;6.40;99.90
30280;DHT22;17097;50.916;5.344;2022-12-08T02:14:27;6.50;99.90
30280;DHT22;17097;50.916;5.344;2022-12-08T02:21:59;6.50;99.90
30280;DHT22;17097;50.916;5.344;2022-12-08T02:27:10;6.40;99.90
30280;DHT22;17097;50.916;5.344;2022-12-08T02:45:47;6.30;99.90
30280;DHT22;17097;50.916;5.344;2022-12-08T02:48:14;6.20;99.90
30280;DHT22;17097;50.916;5.344;2022-12-08T02:50:40;6.20;99.90
30280;DHT22;17097;50.916;5.344;2022-12-08T02:53:06;6.00;99.90
30280;DHT22;17097;50.916;5.344;2022-12-08T02:58:23;5.90;99.90
30280;DHT22;17097;50.916;5.344;2022-12-08T03:03:44;6.10;99.90
30280;DHT22;17097;50.916;5.344;2022-12-08T03:11:16;6.10;99.90
30280;DHT22;17097;50.916;5.344;2022-12-08T03:13:45;6.20;99.90
30280;DHT22;17097;50.916;5.344;2022-12-08T03:16:13;6.10;99.90
30280;DHT22;17097;50.916;5.344;2022-12-08T03:18:44;6.00;99.90
30280;DHT22;17097;50.916;5.344;2022-12-08T03:21:14;6.00;99.90
30280;DHT22;17097;50.916;5.344;2022-12-08T03:23:41;6.00;99.90
30280;DHT22;17097;50.916;5.344;2022-12-08T03:26:12;5.90;99.90
30280;DHT22;17097;50.916;5.344;2022-12-08T03:28:41;5.90;99.90
30280;DHT22;17097;50.916;5.344;2022-12-08T03:31:11;6.00;99.90
30280;DHT22;17097;50.916;5.344;2022-12-08T03:33:39;6.00;99.90
30280;DHT22;17097;50.916;5.344;2022-12-08T03:36:06;6.00;99.90
30280;DHT22;17097;50.916;5.344;2022-12-08T03:38:36;6.10;99.90
30280;DHT22;17097;50.916;5.344;2022-12-08T03:41:04;6.20;99.90
30280;DHT22;17097;50.916;5.344;2022-12-08T03:43:55;6.20;99.90
30280;DHT22;17097;50.916;5.344;2022-12-08T03:46:23;6.30;99.90
30280;DHT22;17097;50.916;5.344;2022-12-08T03:48:49;6.20;99.90
30280;DHT22;17097;50.916;5.344;2022-12-08T03:51:15;6.00;99.90
30280;DHT22;17097;50.916;5.344;2022-12-08T03:53:42;6.10;99.90
30280;DHT22;17097;50.916;5.344;2022-12-08T03:56:13;6.00;99.90
30280;DHT22;17097;50.916;5.344;2022-12-08T03:58:40;6.00;99.90
30280;DHT22;17097;50.916;5.344;2022-12-08T04:01:06;6.10;99.90
30280;DHT22;17097;50.916;5.344;2022-12-08T04:03:33;6.00;99.90
30280;DHT22;17097;50.916;5.344;2022-12-08T04:05:59;5.90;99.90
30280;DHT22;17097;50.916;5.344;2022-12-08T04:08:25;5.90;99.90
30280;DHT22;17097;50.916;5.344;2022-12-08T04:10:51;5.90;99.90
30280;DHT22;17097;50.916;5.344;2022-12-08T04:13:17;5.80;99.90
30280;DHT22;17097;50.916;5.344;2022-12-08T04:15:46;5.70;99.90
30280;DHT22;17097;50.916;5.344;2022-12-08T04:18:12;5.80;99.90
30280;DHT22;17097;50.916;5.344;2022-12-08T04:20:38;5.90;99.90
30280;DHT22;17097;50.916;5.344;2022-12-08T04:23:05;5.90;99.90
30280;DHT22;17097;50.916;5.344;2022-12-08T04:25:31;5.90;99.90
30280;DHT22;17097;50.916;5.344;2022-12-08T04:27:57;5.90;99.90
30280;DHT22;17097;50.916;5.344;2022-12-08T04:30:22;6.10;99.90
30280;DHT22;17097;50.916;5.344;2022-12-08T04:32:50;6.10;99.90
30280;DHT22;17097;50.916;5.344;2022-12-08T04:35:16;6.10;99.90
30280;DHT22;17097;50.916;5.344;2022-12-08T04:37:42;6.00;99.90
30280;DHT22;17097;50.916;5.344;2022-12-08T04:40:09;6.00;99.90
30280;DHT22;17097;50.916;5.344;2022-12-08T04:42:37;5.80;99.90
30280;DHT22;17097;50.916;5.344;2022-12-08T04:45:03;5.80;99.90
30280;DHT22;17097;50.916;5.344;2022-12-08T04:47:31;5.60;99.90
30280;DHT22;17097;50.916;5.344;2022-12-08T04:49:57;5.80;99.90
30280;DHT22;17097;50.916;5.344;2022-12-08T04:52:23;5.90;99.90
30280;DHT22;17097;50.916;5.344;2022-12-08T04:54:49;5.90;99.90
30280;DHT22;17097;50.916;5.344;2022-12-08T04:57:15;5.70;99.90
30280;DHT22;17097;50.916;5.344;2022-12-08T04:59:41;5.70;99.90
30280;DHT22;17097;50.916;5.344;2022-12-08T05:02:07;5.70;99.90
30280;DHT22;17097;50.916;5.344;2022-12-08T05:04:33;5.70;99.90
30280;DHT22;17097;50.916;5.344;2022-12-08T05:06:59;5.80;99.90
30280;DHT22;17097;50.916;5.344;2022-12-08T05:09:24;5.80;99.90
30280;DHT22;17097;50.916;5.344;2022-12-08T05:11:50;5.80;99.90
30280;DHT22;17097;50.916;5.344;2022-12-08T05:14:16;5.70;99.90
30280;DHT22;17097;50.916;5.344;2022-12-08T05:16:43;5.60;99.90
30280;DHT22;17097;50.916;5.344;2022-12-08T05:19:08;5.60;99.90
30280;DHT22;17097;50.916;5.344;2022-12-08T05:21:34;5.70;99.90
30280;DHT22;17097;50.916;5.344;2022-12-08T05:24:00;5.90;99.90
30280;DHT22;17097;50.916;5.344;2022-12-08T05:26:25;5.70;99.90
30280;DHT22;17097;50.916;5.344;2022-12-08T05:28:51;5.60;99.90
30280;DHT22;17097;50.916;5.344;2022-12-08T05:31:17;5.70;99.90
30280;DHT22;17097;50.916;5.344;2022-12-08T05:33:42;5.70;99.90
30280;DHT22;17097;50.916;5.344;2022-12-08T05:36:10;5.50;99.90
30280;DHT22;17097;50.916;5.344;2022-12-08T05:38:36;5.50;99.90
30280;DHT22;17097;50.916;5.344;2022-12-08T05:41:02;5.70;99.90
30280;DHT22;17097;50.916;5.344;2022-12-08T05:43:28;5.60;99.90
30280;DHT22;17097;50.916;5.344;2022-12-08T05:45:53;5.50;99.90
30280;DHT22;17097;50.916;5.344;2022-12-08T05:48:21;5.50;99.90
30280;DHT22;17097;50.916;5.344;2022-12-08T05:50:46;5.40;99.90
30280;DHT22;17097;50.916;5.344;2022-12-08T05:53:13;5.50;99.90
30280;DHT22;17097;50.916;5.344;2022-12-08T05:55:38;5.60;99.90
30280;DHT22;17097;50.916;5.344;2022-12-08T05:58:05;5.60;99.90
30280;DHT22;17097;50.916;5.344;2022-12-08T06:00:31;5.70;99.90
30280;DHT22;17097;50.916;5.344;2022-12-08T06:02:59;5.70;99.90
30280;DHT22;17097;50.916;5.344;2022-12-08T06:05:25;5.80;99.90
30280;DHT22;17097;50.916;5.344;2022-12-08T06:07:50;5.70;99.90
30280;DHT22;17097;50.916;5.344;2022-12-08T06:10:16;5.70;99.90
30280;DHT22;17097;50.916;5.344;2022-12-08T06:12:42;5.60;99.90
30280;DHT22;17097;50.916;5.344;2022-12-08T06:15:10;5.70;99.90
30280;DHT22;17097;50.916;5.344;2022-12-08T06:17:35;5.80;99.90
30280;DHT22;17097;50.916;5.344;2022-12-08T06:20:01;5.70;99.90
30280;DHT22;17097;50.916;5.344;2022-12-08T06:22:28;5.60;99.90
30280;DHT22;17097;50.916;5.344;2022-12-08T06:24:54;5.70;99.90
30280;DHT22;17097;50.916;5.344;2022-12-08T06:27:20;5.70;99.90
30280;DHT22;17097;50.916;5.344;2022-12-08T06:29:46;5.70;99.90
30280;DHT22;17097;50.916;5.344;2022-12-08T06:32:11;5.50;99.90
30280;DHT22;17097;50.916;5.344;2022-12-08T06:34:39;5.50;99.90
30280;DHT22;17097;50.916;5.344;2022-12-08T06:37:05;5.40;99.90
30280;DHT22;17097;50.916;5.344;2022-12-08T06:39:31;5.50;99.90
30280;DHT22;17097;50.916;5.344;2022-12-08T06:41:56;5.60;99.90
30280;DHT22;17097;50.916;5.344;2022-12-08T06:44:40;5.70;99.90
30280;DHT22;17097;50.916;5.344;2022-12-08T06:47:05;5.80;99.90
30280;DHT22;17097;50.916;5.344;2022-12-08T06:49:31;5.70;99.90
30280;DHT22;17097;50.916;5.344;2022-12-08T06:51:56;5.70;99.90
30280;DHT22;17097;50.916;5.344;2022-12-08T06:54:22;5.70;99.90
30280;DHT22;17097;50.916;5.344;2022-12-08T06:56:48;5.60;99.90
30280;DHT22;17097;50.916;5.344;2022-12-08T06:59:17;5.70;99.90
30280;DHT22;17097;50.916;5.344;2022-12-08T07:01:44;5.70;99.90
30280;DHT22;17097;50.916;5.344;2022-12-08T07:04:09;5.60;99.90
30280;DHT22;17097;50.916;5.344;2022-12-08T07:06:35;5.80;99.90
30280;DHT22;17097;50.916;5.344;2022-12-08T07:09:00;5.80;99.90
30280;DHT22;17097;50.916;5.344;2022-12-08T07:11:28;5.90;99.90
30280;DHT22;17097;50.916;5.344;2022-12-08T07:13:54;5.80;99.90
30280;DHT22;17097;50.916;5.344;2022-12-08T07:16:21;5.80;99.90
30280;DHT22;17097;50.916;5.344;2022-12-08T07:18:46;5.60;99.90
30280;DHT22;17097;50.916;5.344;2022-12-08T07:21:14;5.50;99.90
30280;DHT22;17097;50.916;5.344;2022-12-08T07:23:41;5.50;99.90
30280;DHT22;17097;50.916;5.344;2022-12-08T07:26:08;5.50;99.90
30280;DHT22;17097;50.916;5.344;2022-12-08T07:28:35;5.60;99.90
30280;DHT22;17097;50.916;5.344;2022-12-08T07:31:00;5.60;99.90
30280;DHT22;17097;50.916;5.344;2022-12-08T07:33:26;5.70;99.90
30280;DHT22;17097;50.916;5.344;2022-12-08T07:35:55;5.70;99.90
30280;DHT22;17097;50.916;5.344;2022-12-08T07:38:21;5.70;99.90
30280;DHT22;17097;50.916;5.344;2022-12-08T07:40:51;5.70;99.90
30280;DHT22;17097;50.916;5.344;2022-12-08T07:43:17;5.50;99.90
30280;DHT22;17097;50.916;5.344;2022-12-08T07:45:43;5.50;99.90
30280;DHT22;17097;50.916;5.344;2022-12-08T07:48:08;5.60;99.90
30280;DHT22;17097;50.916;5.344;2022-12-08T07:50:37;5.50;99.90
30280;DHT22;17097;50.916;5.344;2022-12-08T07:53:03;5.50;99.90
30280;DHT22;17097;50.916;5.344;2022-12-08T07:55:29;5.60;99.90
30280;DHT22;17097;50.916;5.344;2022-12-08T07:57:54;5.60;99.90
30280;DHT22;17097;50.916;5.344;2022-12-08T08:00:20;5.60;99.90
30280;DHT22;17097;50.916;5.344;2022-12-08T08:02:46;5.60;99.90
30280;DHT22;17097;50.916;5.344;2022-12-08T08:05:12;5.70;99.90
30280;DHT22;17097;50.916;5.344;2022-12-08T08:07:38;5.70;99.90
30280;DHT22;17097;50.916;5.344;2022-12-08T08:10:06;5.70;99.90
30280;DHT22;17097;50.916;5.344;2022-12-08T08:12:32;5.70;99.90
30280;DHT22;17097;50.916;5.344;2022-12-08T08:14:59;5.80;99.90
30280;DHT22;17097;50.916;5.344;2022-12-08T08:17:25;5.80;99.90
30280;DHT22;17097;50.916;5.344;2022-12-08T08:19:50;5.80;99.90
30280;DHT22;17097;50.916;5.344;2022-12-08T08:22:16;5.90;99.90
30280;DHT22;17097;50.916;5.344;2022-12-08T08:24:42;5.90;99.90
30280;DHT22;17097;50.916;5.344;2022-12-08T08:27:08;5.90;99.90
30280;DHT22;17097;50.916;5.344;2022-12-08T08:29:34;5.80;99.90
30280;DHT22;17097;50.916;5.344;2022-12-08T08:31:59;5.90;99.90
30280;DHT22;17097;50.916;5.344;2022-12-08T08:34:25;5.90;99.90
30280;DHT22;17097;50.916;5.344;2022-12-08T08:36:51;6.00;99.90
30280;DHT22;17097;50.916;5.344;2022-12-08T08:39:17;5.90;99.90
30280;DHT22;17097;50.916;5.344;2022-12-08T08:41:44;6.00;99.90
30280;DHT22;17097;50.916;5.344;2022-12-08T08:44:11;6.00;99.90
30280;DHT22;17097;50.916;5.344;2022-12-08T08:46:37;5.90;99.90
30280;DHT22;17097;50.916;5.344;2022-12-08T08:49:03;5.90;99.90
30280;DHT22;17097;50.916;5.344;2022-12-08T08:51:29;5.90;99.90
30280;DHT22;17097;50.916;5.344;2022-12-08T08:53:56;6.00;99.90
30280;DHT22;17097;50.916;5.344;2022-12-08T08:56:22;5.80;99.90
30280;DHT22;17097;50.916;5.344;2022-12-08T08:58:48;5.90;99.90
30280;DHT22;17097;50.916;5.344;2022-12-08T09:01:15;5.90;99.90
30280;DHT22;17097;50.916;5.344;2022-12-08T09:03:42;5.80;99.90
30280;DHT22;17097;50.916;5.344;2022-12-08T09:06:08;5.90;99.90
30280;DHT22;17097;50.916;5.344;2022-12-08T09:08:34;6.00;99.90
30280;DHT22;17097;50.916;5.344;2022-12-08T09:10:59;6.00;99.90
30280;DHT22;17097;50.916;5.344;2022-12-08T09:13:25;6.10;99.90
30280;DHT22;17097;50.916;5.344;2022-12-08T09:15:51;6.10;99.90
30280;DHT22;17097;50.916;5.344;2022-12-08T09:18:16;6.10;99.90
30280;DHT22;17097;50.916;5.344;2022-12-08T09:20:42;6.20;99.90
30280;DHT22;17097;50.916;5.344;2022-12-08T09:23:08;6.10;99.90
30280;DHT22;17097;50.916;5.344;2022-12-08T09:25:34;6.20;99.90
30280;DHT22;17097;50.916;5.344;2022-12-08T09:28:00;6.10;99.90
30280;DHT22;17097;50.916;5.344;2022-12-08T09:30:26;6.20;99.90
30280;DHT22;17097;50.916;5.344;2022-12-08T09:32:52;6.30;99.90
30280;DHT22;17097;50.916;5.344;2022-12-08T09:35:18;6.40;99.90
30280;DHT22;17097;50.916;5.344;2022-12-08T09:37:44;6.40;99.90
30280;DHT22;17097;50.916;5.344;2022-12-08T09:40:14;6.30;99.90
30280;DHT22;17097;50.916;5.344;2022-12-08T09:42:44;6.30;99.90
30280;DHT22;17097;50.916;5.344;2022-12-08T09:45:12;6.40;99.90
30280;DHT22;17097;50.916;5.344;2022-12-08T09:47:40;6.50;99.90
30280;DHT22;17097;50.916;5.344;2022-12-08T09:50:16;6.50;99.90
30280;DHT22;17097;50.916;5.344;2022-12-08T09:52:44;6.40;99.90
30280;DHT22;17097;50.916;5.344;2022-12-08T09:55:16;6.50;99.90
30280;DHT22;17097;50.916;5.344;2022-12-08T09:57:43;6.40;99.90
30280;DHT22;17097;50.916;5.344;2022-12-08T10:00:12;6.50;99.90
30280;DHT22;17097;50.916;5.344;2022-12-08T10:02:38;6.40;99.90
30280;DHT22;17097;50.916;5.344;2022-12-08T10:05:04;6.50;99.90
30280;DHT22;17097;50.916;5.344;2022-12-08T10:07:44;6.30;99.90
30280;DHT22;17097;50.916;5.344;2022-12-08T10:12:43;6.40;99.90
30280;DHT22;17097;50.916;5.344;2022-12-08T10:18:02;6.60;99.90
30280;DHT22;17097;50.916;5.344;2022-12-08T10:20:47;6.70;99.90
30280;DHT22;17097;50.916;5.344;2022-12-08T10:23:19;6.70;99.90
30280;DHT22;17097;50.916;5.344;2022-12-08T10:25:48;6.80;99.90
30280;DHT22;17097;50.916;5.344;2022-12-08T10:28:14;6.80;99.90
30280;DHT22;17097;50.916;5.344;2022-12-08T10:30:40;6.70;99.90
30280;DHT22;17097;50.916;5.344;2022-12-08T10:33:13;6.70;99.90
30280;DHT22;17097;50.916;5.344;2022-12-08T10:35:47;6.70;99.90
30280;DHT22;17097;50.916;5.344;2022-12-08T10:40:49;6.80;99.90
30280;DHT22;17097;50.916;5.344;2022-12-08T10:43:23;6.90;99.90
30280;DHT22;17097;50.916;5.344;2022-12-08T10:45:49;6.80;99.90
30280;DHT22;17097;50.916;5.344;2022-12-08T10:50:54;6.90;99.90
30280;DHT22;17097;50.916;5.344;2022-12-08T10:53:24;6.90;99.90
30280;DHT22;17097;50.916;5.344;2022-12-08T10:55:51;6.90;99.90
30280;DHT22;17097;50.916;5.344;2022-12-08T10:58:34;6.90;99.90
30280;DHT22;17097;50.916;5.344;2022-12-08T11:01:05;6.90;99.90
30280;DHT22;17097;50.916;5.344;2022-12-08T11:03:35;6.80;99.90
30280;DHT22;17097;50.916;5.344;2022-12-08T11:06:08;7.00;99.90
30280;DHT22;17097;50.916;5.344;2022-12-08T11:08:37;6.90;99.90
30280;DHT22;17097;50.916;5.344;2022-12-08T11:11:08;6.80;99.90
30280;DHT22;17097;50.916;5.344;2022-12-08T11:13:36;6.70;99.90
30280;DHT22;17097;50.916;5.344;2022-12-08T11:16:04;6.80;99.90
30280;DHT22;17097;50.916;5.344;2022-12-08T11:18:41;6.80;99.90
30280;DHT22;17097;50.916;5.344;2022-12-08T11:21:50;6.80;99.90
30280;DHT22;17097;50.916;5.344;2022-12-08T11:23:56;6.70;99.90
30280;DHT22;17097;50.916;5.344;2022-12-08T11:26:25;6.70;99.90
30280;DHT22;17097;50.916;5.344;2022-12-08T11:28:52;6.70;99.90
30280;DHT22;17097;50.916;5.344;2022-12-08T11:33:50;6.60;99.90
30280;DHT22;17097;50.916;5.344;2022-12-08T11:36:17;6.60;99.90
30280;DHT22;17097;50.916;5.344;2022-12-08T11:38:45;6.50;99.90
30280;DHT22;17097;50.916;5.344;2022-12-08T11:41:15;6.50;99.90
30280;DHT22;17097;50.916;5.344;2022-12-08T11:46:11;6.80;99.90
30280;DHT22;17097;50.916;5.344;2022-12-08T11:48:39;7.00;99.90
30280;DHT22;17097;50.916;5.344;2022-12-08T11:54:09;6.90;99.90
30280;DHT22;17097;50.916;5.344;2022-12-08T11:56:31;7.00;99.90
30280;DHT22;17097;50.916;5.344;2022-12-08T11:59:16;7.10;99.90
30280;DHT22;17097;50.916;5.344;2022-12-08T12:01:43;7.30;99.90
30280;DHT22;17097;50.916;5.344;2022-12-08T12:20:04;9.60;99.90
30280;DHT22;17097;50.916;5.344;2022-12-08T12:22:34;9.50;99.90
30280;DHT22;17097;50.916;5.344;2022-12-08T12:25:02;9.30;99.90
30280;DHT22;17097;50.916;5.344;2022-12-08T12:27:38;9.60;99.90
30280;DHT22;17097;50.916;5.344;2022-12-08T12:30:07;9.60;99.90
30280;DHT22;17097;50.916;5.344;2022-12-08T12:32:58;9.60;99.90
30280;DHT22;17097;50.916;5.344;2022-12-08T12:35:27;9.50;99.90
30280;DHT22;17097;50.916;5.344;2022-12-08T12:37:56;9.60;99.90
30280;DHT22;17097;50.916;5.344;2022-12-08T12:40:23;9.40;99.90
30280;DHT22;17097;50.916;5.344;2022-12-08T12:45:23;9.20;99.90
30280;DHT22;17097;50.916;5.344;2022-12-08T12:52:57;9.00;99.90
30280;DHT22;17097;50.916;5.344;2022-12-08T12:55:24;9.20;99.90
30280;DHT22;17097;50.916;5.344;2022-12-08T12:57:51;9.00;99.90
30280;DHT22;17097;50.916;5.344;2022-12-08T13:00:18;9.00;99.90
30280;DHT22;17097;50.916;5.344;2022-12-08T13:02:47;8.90;99.90
30280;DHT22;17097;50.916;5.344;2022-12-08T13:05:18;8.70;99.90
30280;DHT22;17097;50.916;5.344;2022-12-08T13:12:39;8.70;99.90
30280;DHT22;17097;50.916;5.344;2022-12-08T13:15:06;8.70;99.90
30280;DHT22;17097;50.916;5.344;2022-12-08T13:17:39;8.70;99.90
30280;DHT22;17097;50.916;5.344;2022-12-08T13:20:16;8.50;99.90
30280;DHT22;17097;50.916;5.344;2022-12-08T13:28:07;8.10;99.90
30280;DHT22;17097;50.916;5.344;2022-12-08T13:33:09;8.20;99.90
30280;DHT22;17097;50.916;5.344;2022-12-08T13:35:39;8.10;99.90
30280;DHT22;17097;50.916;5.344;2022-12-08T13:38:07;7.80;99.90
30280;DHT22;17097;50.916;5.344;2022-12-08T13:40:33;7.70;99.90
30280;DHT22;17097;50.916;5.344;2022-12-08T13:45:27;7.80;99.90
30280;DHT22;17097;50.916;5.344;2022-12-08T13:48:54;7.90;99.90
30280;DHT22;17097;50.916;5.344;2022-12-08T13:50:51;7.90;99.90
30280;DHT22;17097;50.916;5.344;2022-12-08T13:53:32;7.80;99.90
30280;DHT22;17097;50.916;5.344;2022-12-08T13:56:01;7.70;99.90
30280;DHT22;17097;50.916;5.344;2022-12-08T13:58:28;7.70;99.90
30280;DHT22;17097;50.916;5.344;2022-12-08T14:01:16;7.60;99.90
30280;DHT22;17097;50.916;5.344;2022-12-08T14:03:54;7.60;99.90
30280;DHT22;17097;50.916;5.344;2022-12-08T14:06:30;7.70;99.90
30280;DHT22;17097;50.916;5.344;2022-12-08T14:09:00;7.50;99.90
30280;DHT22;17097;50.916;5.344;2022-12-08T14:11:30;7.50;99.90
30280;DHT22;17097;50.916;5.344;2022-12-08T14:14:01;7.50;99.90
30280;DHT22;17097;50.916;5.344;2022-12-08T14:16:31;7.40;99.90
30280;DHT22;17097;50.916;5.344;2022-12-08T14:19:04;7.40;99.90
30280;DHT22;17097;50.916;5.344;2022-12-08T14:21:30;7.40;99.90
30280;DHT22;17097;50.916;5.344;2022-12-08T14:23:59;7.50;99.90
30280;DHT22;17097;50.916;5.344;2022-12-08T14:26:25;7.50;99.90
30280;DHT22;17097;50.916;5.344;2022-12-08T14:28:50;7.50;99.90
30280;DHT22;17097;50.916;5.344;2022-12-08T14:31:19;7.50;99.90
30280;DHT22;17097;50.916;5.344;2022-12-08T14:33:45;7.50;99.90
30280;DHT22;17097;50.916;5.344;2022-12-08T14:36:11;7.50;99.90
30280;DHT22;17097;50.916;5.344;2022-12-08T14:38:39;7.40;99.90
30280;DHT22;17097;50.916;5.344;2022-12-08T14:41:06;7.40;99.90
30280;DHT22;17097;50.916;5.344;2022-12-08T14:43:33;7.50;99.90
30280;DHT22;17097;50.916;5.344;2022-12-08T14:46:03;7.40;99.90
30280;DHT22;17097;50.916;5.344;2022-12-08T14:56:32;7.30;99.90
30280;DHT22;17097;50.916;5.344;2022-12-08T14:59:20;7.10;99.90
30280;DHT22;17097;50.916;5.344;2022-12-08T15:01:49;7.10;99.90
30280;DHT22;17097;50.916;5.344;2022-12-08T15:04:18;7.10;99.90
30280;DHT22;17097;50.916;5.344;2022-12-08T15:07:06;7.20;99.90
